Time;durP1;ratioP1;P1;durP2;ratioP2;P2;SDS_P1;SDS_P2;PMS_P1;PMS_P2;Temp;Humidity;BMP_temperature;BMP_pressure;BME280_temperature;BME280_humidity;BME280_pressure;Samples;Min_cycle;Max_cycle;Signal;HPM_P1;HPM_P2
2021/08/28 00:00:18;;;;;;;21.80;11.20;;;14.20;99.90;;;;;;5032001;28;20214;-64
2021/08/28 00:02:45;;;;;;;17.03;11.60;;;14.20;99.90;;;;;;5031489;28;20283;-64
2021/08/28 00:05:11;;;;;;;17.50;13.43;;;14.20;99.90;;;;;;5031884;28;20260;-64
2021/08/28 00:07:38;;;;;;;18.23;13.30;;;14.10;99.90;;;;;;5031495;28;20264;-64
2021/08/28 00:10:06;;;;;;;26.93;15.30;;;14.00;99.90;;;;;;5031777;28;20210;-64
2021/08/28 00:12:33;;;;;;;24.87;15.77;;;14.00;99.90;;;;;;5031557;28;20237;-63
2021/08/28 00:15:00;;;;;;;17.83;14.20;;;14.00;99.90;;;;;;5031725;28;20202;-64
2021/08/28 00:17:33;;;;;;;25.37;14.37;;;14.00;99.90;;;;;;5031490;28;20226;-64
2021/08/28 00:20:00;;;;;;;26.77;15.10;;;14.00;99.90;;;;;;5035990;28;20625;-64
2021/08/28 00:22:26;;;;;;;22.83;15.30;;;14.10;99.90;;;;;;5035459;28;20226;-64
2021/08/28 00:24:53;;;;;;;21.50;15.83;;;14.10;99.90;;;;;;5035380;28;20210;-64
2021/08/28 00:27:19;;;;;;;31.03;17.30;;;14.00;99.90;;;;;;5035547;28;20210;-64
2021/08/28 00:29:46;;;;;;;30.53;18.33;;;14.00;99.90;;;;;;5035281;28;20210;-64
2021/08/28 00:32:13;;;;;;;26.23;17.90;;;14.00;99.90;;;;;;5035658;28;20281;-64
2021/08/28 00:34:41;;;;;;;28.20;16.93;;;14.00;99.90;;;;;;5035438;28;20668;-64
2021/08/28 00:37:07;;;;;;;25.77;16.83;;;14.00;99.90;;;;;;5035305;28;20276;-63
2021/08/28 00:39:34;;;;;;;22.87;15.50;;;14.00;99.90;;;;;;5035511;28;20202;-64
2021/08/28 00:42:00;;;;;;;20.63;14.47;;;14.10;99.90;;;;;;5035447;28;20226;-64
2021/08/28 00:44:27;;;;;;;22.70;15.07;;;14.10;99.90;;;;;;5035149;28;20211;-64
2021/08/28 00:46:55;;;;;;;25.90;16.40;;;14.00;99.90;;;;;;5035553;28;20206;-63
2021/08/28 00:49:22;;;;;;;24.70;16.27;;;14.00;99.90;;;;;;5035554;28;20256;-63
2021/08/28 00:51:50;;;;;;;30.67;19.80;;;13.90;99.90;;;;;;5035124;28;20291;-64
2021/08/28 00:54:16;;;;;;;31.93;19.13;;;13.90;99.90;;;;;;5034831;28;20268;-64
2021/08/28 00:56:43;;;;;;;28.93;19.43;;;13.90;99.90;;;;;;5034904;28;20233;-63
2021/08/28 00:59:10;;;;;;;35.87;22.67;;;13.90;99.90;;;;;;5034972;28;20697;-64
2021/08/28 01:01:40;;;;;;;34.87;23.40;;;14.00;99.90;;;;;;5034947;28;20260;-64
2021/08/28 01:04:09;;;;;;;32.80;23.03;;;14.00;99.90;;;;;;5034868;28;20213;-63
2021/08/28 01:06:42;;;;;;;38.53;26.20;;;14.00;99.90;;;;;;5034840;28;20203;-64
2021/08/28 01:09:17;;;;;;;40.17;26.63;;;14.00;99.90;;;;;;5034872;28;20206;-64
2021/08/28 01:11:49;;;;;;;40.30;26.97;;;13.90;99.90;;;;;;5034467;28;20202;-64
2021/08/28 01:14:19;;;;;;;42.60;27.23;;;14.00;99.90;;;;;;5034750;28;20206;-64
2021/08/28 01:16:50;;;;;;;41.97;26.00;;;13.90;99.90;;;;;;5034724;28;20585;-64
2021/08/28 01:19:22;;;;;;;40.50;26.73;;;13.80;99.90;;;;;;5034606;28;20629;-63
2021/08/28 01:21:50;;;;;;;39.83;25.53;;;13.80;99.90;;;;;;5034291;28;20222;-63
2021/08/28 01:24:20;;;;;;;37.37;25.93;;;13.90;99.90;;;;;;5034543;28;20680;-63
2021/08/28 01:26:56;;;;;;;36.17;24.63;;;13.90;99.90;;;;;;5034498;28;20202;-64
2021/08/28 01:29:28;;;;;;;44.10;24.13;;;13.90;99.90;;;;;;5034164;28;20201;-64
2021/08/28 01:31:57;;;;;;;37.77;24.63;;;13.90;99.90;;;;;;5034153;28;20706;-64
2021/08/28 01:34:26;;;;;;;40.70;23.77;;;14.00;99.90;;;;;;5034013;28;20253;-64
2021/08/28 01:36:53;;;;;;;36.70;23.77;;;14.00;99.90;;;;;;5034257;28;20276;-64
2021/08/28 01:39:20;;;;;;;37.03;25.23;;;14.00;99.90;;;;;;5034351;28;20260;-64
2021/08/28 01:41:49;;;;;;;42.77;25.70;;;14.00;99.90;;;;;;5033993;28;20226;-64
2021/08/28 01:44:17;;;;;;;40.40;25.00;;;14.00;99.90;;;;;;5034005;28;20210;-64
2021/08/28 01:46:46;;;;;;;46.83;27.13;;;14.00;99.90;;;;;;5034155;28;20272;-64
2021/08/28 01:49:14;;;;;;;50.67;29.40;;;13.90;99.90;;;;;;5033754;28;20606;-64
2021/08/28 01:51:42;;;;;;;43.00;28.23;;;13.90;99.90;;;;;;5034049;28;20630;-64
2021/08/28 01:54:08;;;;;;;45.67;27.43;;;13.90;99.90;;;;;;5033718;28;20260;-64
2021/08/28 01:56:35;;;;;;;48.00;27.30;;;13.90;99.90;;;;;;5033851;28;20287;-64
2021/08/28 01:59:03;;;;;;;44.20;25.27;;;13.90;99.90;;;;;;5034162;28;20214;-64
2021/08/28 02:01:30;;;;;;;51.17;26.57;;;13.90;99.90;;;;;;5033556;28;20667;-64
2021/08/28 02:03:58;;;;;;;50.73;27.53;;;13.90;99.90;;;;;;5033164;28;20651;-64
2021/08/28 02:06:32;;;;;;;51.83;28.47;;;13.80;99.90;;;;;;5033794;28;20210;-64
2021/08/28 02:09:02;;;;;;;50.73;28.10;;;13.80;99.90;;;;;;5033527;28;20206;-64
2021/08/28 02:11:34;;;;;;;55.57;29.10;;;13.80;99.90;;;;;;5033465;28;20206;-64
2021/08/28 02:14:07;;;;;;;54.17;30.40;;;13.90;99.90;;;;;;5033173;28;20236;-64
2021/08/28 02:16:36;;;;;;;55.23;30.77;;;13.80;99.90;;;;;;5033638;28;20222;-64
2021/08/28 02:19:10;;;;;;;56.00;30.37;;;13.70;99.90;;;;;;5033486;28;20210;-64
2021/08/28 02:21:38;;;;;;;62.37;31.13;;;13.80;99.90;;;;;;5033443;28;20260;-64
2021/08/28 02:24:09;;;;;;;52.23;29.77;;;13.80;99.90;;;;;;5033165;28;20214;-64
2021/08/28 02:26:40;;;;;;;51.73;28.87;;;13.80;99.90;;;;;;5033180;28;20670;-64
2021/08/28 02:29:12;;;;;;;57.47;30.07;;;13.90;99.90;;;;;;5033684;28;20209;-65
2021/08/28 02:31:43;;;;;;;51.57;28.13;;;13.90;99.90;;;;;;5033262;28;20213;-64
2021/08/28 02:34:13;;;;;;;47.67;29.03;;;13.90;99.90;;;;;;5032909;28;20214;-64
2021/08/28 02:36:42;;;;;;;43.30;28.37;;;14.00;99.90;;;;;;5032942;28;20609;-65
2021/08/28 02:39:10;;;;;;;52.80;28.03;;;14.00;99.90;;;;;;5033447;28;20206;-65
2021/08/28 02:41:39;;;;;;;44.53;27.00;;;14.00;99.90;;;;;;5032292;28;20202;-65
2021/08/28 02:44:07;;;;;;;44.17;27.73;;;14.00;99.90;;;;;;5032954;28;20628;-65
2021/08/28 02:46:35;;;;;;;44.67;27.47;;;14.00;99.90;;;;;;5033021;28;20202;-64
2021/08/28 02:49:05;;;;;;;51.70;28.37;;;14.00;99.90;;;;;;5032954;28;20274;-64
2021/08/28 02:51:36;;;;;;;61.50;29.33;;;13.90;99.90;;;;;;5032530;28;20209;-64
2021/08/28 02:54:04;;;;;;;54.03;29.43;;;13.90;99.90;;;;;;5032530;28;20222;-64
2021/08/28 02:56:33;;;;;;;55.80;28.57;;;13.90;99.90;;;;;;5032688;28;20695;-64
2021/08/28 02:59:00;;;;;;;51.67;27.73;;;13.90;99.90;;;;;;5032911;28;20217;-64
2021/08/28 03:01:29;;;;;;;46.50;27.23;;;13.90;99.90;;;;;;5032669;28;20211;-64
2021/08/28 03:03:56;;;;;;;48.40;27.60;;;13.90;99.90;;;;;;5032455;28;20210;-64
2021/08/28 03:06:27;;;;;;;52.03;28.47;;;13.90;99.90;;;;;;5032793;28;20214;-64
2021/08/28 03:08:56;;;;;;;51.13;28.27;;;14.00;99.90;;;;;;5032847;28;20256;-64
2021/08/28 03:11:23;;;;;;;53.77;29.33;;;14.00;99.90;;;;;;5032834;28;20348;-64
2021/08/28 03:13:50;;;;;;;59.33;28.13;;;13.90;99.90;;;;;;5032302;28;20223;-64
2021/08/28 03:16:19;;;;;;;56.70;28.70;;;13.80;99.90;;;;;;5032467;28;20206;-64
2021/08/28 03:18:49;;;;;;;57.07;27.67;;;13.80;99.90;;;;;;5032274;28;20213;-64
2021/08/28 03:21:17;;;;;;;61.77;28.43;;;13.80;99.90;;;;;;5032445;28;20629;-64
2021/08/28 03:23:45;;;;;;;63.47;29.20;;;13.80;99.90;;;;;;5032121;28;20226;-64
2021/08/28 03:26:16;;;;;;;66.47;29.80;;;13.80;99.90;;;;;;5032353;28;20206;-64
2021/08/28 03:28:43;;;;;;;65.23;31.30;;;13.70;99.90;;;;;;5032132;28;20206;-64
2021/08/28 03:31:11;;;;;;;71.13;31.47;;;13.70;99.90;;;;;;5031899;28;20206;-64
2021/08/28 03:33:38;;;;;;;82.10;31.93;;;13.70;99.90;;;;;;5031848;28;20261;-64
2021/08/28 03:36:06;;;;;;;70.20;31.63;;;13.70;99.90;;;;;;5032143;28;21270;-64
2021/08/28 03:38:34;;;;;;;86.27;32.90;;;13.70;99.90;;;;;;5031959;28;20225;-65
2021/08/28 03:41:01;;;;;;;73.20;30.60;;;13.80;99.90;;;;;;5032086;28;20202;-64
2021/08/28 03:43:29;;;;;;;80.87;31.70;;;13.80;99.90;;;;;;5031499;28;20228;-64
2021/08/28 03:45:56;;;;;;;79.23;32.97;;;13.80;99.90;;;;;;5032280;28;20214;-64
2021/08/28 03:48:23;;;;;;;94.03;33.57;;;13.80;99.90;;;;;;5031885;28;20260;-64
2021/08/28 03:50:50;;;;;;;98.30;33.30;;;13.80;99.90;;;;;;5032034;28;20210;-64
2021/08/28 03:53:16;;;;;;;81.03;33.37;;;13.80;99.90;;;;;;5031604;28;20265;-64
2021/08/28 03:55:43;;;;;;;83.50;32.77;;;13.80;99.90;;;;;;5031762;28;20630;-65
2021/08/28 03:58:10;;;;;;;68.73;31.77;;;13.80;99.90;;;;;;5031543;28;20226;-64
2021/08/28 04:00:38;;;;;;;62.63;31.33;;;13.90;99.90;;;;;;5031792;28;20267;-64
2021/08/28 04:03:04;;;;;;;60.57;29.77;;;13.90;99.90;;;;;;5031906;28;20222;-65
2021/08/28 04:05:31;;;;;;;64.70;31.50;;;13.90;99.90;;;;;;5031552;28;20284;-64
2021/08/28 04:07:57;;;;;;;72.70;30.87;;;13.90;99.90;;;;;;5031888;28;20202;-64
2021/08/28 04:10:25;;;;;;;66.10;29.97;;;13.90;99.90;;;;;;5031733;28;20202;-64
2021/08/28 04:12:51;;;;;;;65.40;30.33;;;13.90;99.90;;;;;;5031561;28;20226;-64
2021/08/28 04:15:18;;;;;;;63.47;30.13;;;14.00;99.90;;;;;;5031617;28;20210;-63
2021/08/28 04:17:46;;;;;;;58.53;29.50;;;14.00;99.90;;;;;;5031632;28;20280;-64
2021/08/28 04:20:13;;;;;;;54.93;28.07;;;14.10;99.90;;;;;;5031617;28;20272;-64
2021/08/28 04:22:39;;;;;;;59.43;29.13;;;14.10;99.90;;;;;;5031614;28;20230;-64
2021/08/28 04:25:07;;;;;;;67.17;29.73;;;14.10;99.90;;;;;;5031273;28;20571;-64
2021/08/28 04:27:33;;;;;;;65.23;29.70;;;14.10;99.90;;;;;;5031678;28;20206;-64
2021/08/28 04:30:00;;;;;;;72.73;30.60;;;14.20;99.90;;;;;;5031373;28;20667;-64
2021/08/28 04:32:27;;;;;;;72.20;31.53;;;14.20;99.90;;;;;;5031558;28;20653;-64
2021/08/28 04:34:55;;;;;;;73.47;30.83;;;14.20;99.90;;;;;;5031407;28;20210;-64
2021/08/28 04:37:21;;;;;;;75.47;28.50;;;14.30;99.90;;;;;;5031579;28;20222;-64
2021/08/28 04:39:48;;;;;;;63.07;27.90;;;14.30;99.90;;;;;;5031367;28;20628;-64
2021/08/28 04:42:15;;;;;;;77.50;29.70;;;14.30;99.90;;;;;;5031532;28;20276;-64
2021/08/28 04:44:41;;;;;;;68.40;28.97;;;14.20;99.90;;;;;;5031035;28;20210;-65
2021/08/28 04:47:08;;;;;;;66.40;29.13;;;14.20;99.90;;;;;;5031570;28;20210;-64
2021/08/28 04:49:35;;;;;;;61.70;28.63;;;14.20;99.90;;;;;;5031596;28;20257;-64
2021/08/28 04:52:04;;;;;;;67.57;28.37;;;14.30;99.90;;;;;;5031365;28;20226;-64
2021/08/28 04:54:32;;;;;;;72.83;29.70;;;14.20;99.90;;;;;;5030743;28;20214;-64
2021/08/28 04:56:59;;;;;;;82.40;31.60;;;14.10;99.90;;;;;;5031052;28;20207;-64
2021/08/28 04:59:26;;;;;;;80.47;31.80;;;14.00;99.90;;;;;;5031578;28;20206;-65
2021/08/28 05:01:55;;;;;;;80.53;30.97;;;14.00;99.90;;;;;;5031272;28;20233;-64
2021/08/28 05:04:21;;;;;;;85.30;31.00;;;14.10;99.90;;;;;;5032680;28;20737;-64
2021/08/28 05:06:48;;;;;;;69.57;27.13;;;14.00;99.90;;;;;;5034573;28;20202;-64
2021/08/28 05:09:16;;;;;;;68.70;26.40;;;13.90;99.90;;;;;;5034798;28;20210;-64
2021/08/28 05:11:42;;;;;;;73.33;27.80;;;13.90;99.90;;;;;;5034900;28;20206;-64
2021/08/28 05:14:09;;;;;;;72.43;27.70;;;13.90;99.90;;;;;;5034483;28;20264;-64
2021/08/28 05:16:36;;;;;;;78.63;27.93;;;13.90;99.90;;;;;;5034784;28;20252;-64
2021/08/28 05:19:02;;;;;;;75.67;25.97;;;14.00;99.90;;;;;;5034438;28;20226;-64
2021/08/28 05:21:30;;;;;;;70.23;25.10;;;13.90;99.90;;;;;;5034359;28;20269;-64
2021/08/28 05:23:57;;;;;;;54.90;22.90;;;13.80;99.90;;;;;;5034493;28;20206;-64
2021/08/28 05:26:25;;;;;;;48.33;18.97;;;13.80;99.90;;;;;;5034625;28;20767;-63
2021/08/28 05:28:52;;;;;;;47.30;18.63;;;13.80;99.90;;;;;;5034348;28;20248;-64
2021/08/28 05:31:19;;;;;;;49.00;18.97;;;13.80;99.90;;;;;;5034436;28;20210;-64
2021/08/28 05:33:46;;;;;;;37.83;17.30;;;13.80;99.90;;;;;;5034081;28;20234;-64
2021/08/28 05:36:13;;;;;;;31.93;15.47;;;13.80;99.90;;;;;;5034075;28;20264;-64
2021/08/28 05:38:39;;;;;;;31.47;14.77;;;13.80;99.90;;;;;;5034313;28;20233;-65
2021/08/28 05:41:06;;;;;;;17.67;11.60;;;13.90;99.90;;;;;;5034288;28;20206;-65
2021/08/28 05:43:34;;;;;;;23.37;13.10;;;14.00;99.90;;;;;;5033962;28;20227;-65
2021/08/28 05:46:00;;;;;;;25.07;13.20;;;13.90;99.90;;;;;;5034071;28;20757;-65
2021/08/28 05:48:27;;;;;;;21.70;12.27;;;13.90;99.90;;;;;;5034013;28;20209;-64
2021/08/28 05:50:54;;;;;;;22.23;12.70;;;13.90;99.90;;;;;;5034036;28;20206;-65
2021/08/28 05:53:20;;;;;;;16.83;10.30;;;13.90;99.90;;;;;;5034099;28;20280;-65
2021/08/28 05:55:47;;;;;;;14.90;9.87;;;13.90;99.90;;;;;;5033881;28;20679;-65
2021/08/28 05:58:14;;;;;;;14.20;9.67;;;13.90;99.90;;;;;;5032420;28;20292;-65
2021/08/28 06:00:41;;;;;;;12.93;8.27;;;13.90;99.90;;;;;;5032896;28;20210;-64
2021/08/28 06:03:08;;;;;;;12.20;8.10;;;13.80;99.90;;;;;;5033762;28;20296;-65
2021/08/28 06:05:35;;;;;;;11.90;8.90;;;13.80;99.90;;;;;;5029999;28;20214;-65
2021/08/28 06:08:02;;;;;;;12.33;8.33;;;13.90;99.90;;;;;;5041561;28;20201;-64
2021/08/28 06:10:28;;;;;;;11.40;7.67;;;13.90;99.90;;;;;;5053670;28;20244;-65
2021/08/28 06:12:55;;;;;;;14.80;8.20;;;13.90;99.90;;;;;;5053629;28;20229;-65
2021/08/28 06:15:21;;;;;;;10.60;7.90;;;13.90;99.90;;;;;;5045772;28;20202;-65
2021/08/28 06:17:49;;;;;;;10.40;7.00;;;13.90;99.90;;;;;;5033269;28;20230;-65
2021/08/28 06:20:16;;;;;;;10.63;8.27;;;14.00;99.90;;;;;;5033657;28;20628;-65
2021/08/28 06:22:43;;;;;;;11.00;7.87;;;13.90;99.90;;;;;;5033388;28;20234;-65
2021/08/28 06:25:10;;;;;;;14.80;11.00;;;13.90;99.90;;;;;;5033283;28;20268;-65
2021/08/28 06:27:37;;;;;;;16.37;11.33;;;13.90;99.90;;;;;;5033165;28;20206;-65
2021/08/28 06:30:04;;;;;;;19.63;13.17;;;13.90;99.90;;;;;;5033288;28;20362;-65
2021/08/28 06:32:31;;;;;;;24.00;14.93;;;14.00;99.90;;;;;;5032922;28;20234;-65
2021/08/28 06:34:59;;;;;;;21.83;15.17;;;14.00;99.90;;;;;;5033729;28;20264;-64
2021/08/28 06:37:25;;;;;;;28.90;19.03;;;14.10;99.90;;;;;;5033007;28;20211;-61
2021/08/28 06:39:52;;;;;;;33.90;21.30;;;14.10;99.90;;;;;;5028835;28;20690;-63
2021/08/28 06:42:18;;;;;;;32.10;22.23;;;14.10;99.90;;;;;;5032420;28;20280;-63
2021/08/28 06:44:45;;;;;;;30.33;19.90;;;14.20;99.90;;;;;;5032790;28;20625;-62
2021/08/28 06:47:12;;;;;;;28.17;19.77;;;14.30;99.90;;;;;;5032838;28;20276;-62
2021/08/28 06:49:38;;;;;;;28.97;19.10;;;14.30;99.90;;;;;;5032799;28;20753;-63
2021/08/28 06:52:06;;;;;;;29.17;19.83;;;14.40;99.90;;;;;;5032695;28;20230;-63
2021/08/28 06:54:33;;;;;;;27.47;18.00;;;14.40;99.90;;;;;;5032202;28;20268;-63
2021/08/28 06:57:00;;;;;;;21.93;16.73;;;14.40;99.90;;;;;;5032421;28;20236;-67
2021/08/28 06:59:26;;;;;;;24.43;17.90;;;14.40;99.90;;;;;;5031888;28;20230;-65
2021/08/28 07:01:53;;;;;;;20.57;17.07;;;14.50;99.90;;;;;;5032620;28;20230;-62
2021/08/28 07:04:19;;;;;;;20.53;16.00;;;14.50;99.90;;;;;;5032194;28;20331;-62
2021/08/28 07:06:46;;;;;;;18.87;14.00;;;14.60;99.90;;;;;;5032448;28;20265;-63
2021/08/28 07:09:14;;;;;;;21.70;14.33;;;14.60;99.90;;;;;;5031868;28;20206;-63
2021/08/28 07:11:41;;;;;;;17.33;12.20;;;14.60;99.90;;;;;;5032139;28;20257;-62
2021/08/28 07:14:08;;;;;;;15.13;12.33;;;14.70;99.90;;;;;;5031949;28;20210;-67
2021/08/28 07:16:34;;;;;;;15.70;11.60;;;14.60;99.90;;;;;;5032233;28;20564;-64
2021/08/28 07:19:01;;;;;;;16.90;12.13;;;14.60;99.90;;;;;;5032628;28;20226;-64
2021/08/28 07:21:27;;;;;;;16.27;12.53;;;14.70;99.90;;;;;;5032280;28;20260;-64
2021/08/28 07:23:54;;;;;;;16.80;11.87;;;14.60;99.90;;;;;;5032093;28;20222;-64
2021/08/28 07:26:22;;;;;;;17.63;12.60;;;14.60;99.90;;;;;;5031972;28;20629;-65
2021/08/28 07:28:49;;;;;;;18.17;14.37;;;14.60;99.90;;;;;;5032267;28;20901;-65
2021/08/28 07:31:15;;;;;;;18.83;13.70;;;14.60;99.90;;;;;;5032193;28;20210;-64
2021/08/28 07:33:42;;;;;;;19.73;14.40;;;14.40;99.90;;;;;;5032089;28;20226;-64
2021/08/28 07:36:09;;;;;;;21.27;16.43;;;14.50;99.90;;;;;;5032254;28;20629;-66
2021/08/28 07:38:36;;;;;;;17.93;14.27;;;14.50;99.90;;;;;;5032273;28;20222;-64
2021/08/28 07:41:03;;;;;;;19.83;15.17;;;14.50;99.90;;;;;;5032112;28;20206;-65
2021/08/28 07:43:31;;;;;;;21.23;15.33;;;14.50;99.90;;;;;;5031698;28;20777;-64
2021/08/28 07:45:57;;;;;;;19.73;15.77;;;14.50;99.90;;;;;;5032227;28;20207;-64
2021/08/28 07:48:24;;;;;;;21.37;15.27;;;14.50;99.90;;;;;;5032053;28;20206;-64
2021/08/28 07:50:51;;;;;;;20.57;15.23;;;14.60;99.90;;;;;;5032194;28;20240;-65
2021/08/28 07:53:18;;;;;;;24.37;16.03;;;14.50;99.90;;;;;;5031890;28;20234;-64
2021/08/28 07:55:44;;;;;;;23.87;15.67;;;14.40;99.90;;;;;;5032105;28;20207;-64
2021/08/28 07:58:11;;;;;;;26.20;17.63;;;14.50;99.90;;;;;;5032081;28;20353;-65
2021/08/28 08:00:39;;;;;;;22.80;16.13;;;14.60;99.90;;;;;;5032192;28;20210;-64
2021/08/28 08:03:06;;;;;;;23.10;16.43;;;14.60;99.90;;;;;;5032191;28;20222;-65
2021/08/28 08:05:33;;;;;;;26.90;15.30;;;14.70;99.90;;;;;;5032177;28;20210;-65
2021/08/28 08:08:00;;;;;;;20.53;15.33;;;14.70;99.90;;;;;;5031814;28;20284;-65
2021/08/28 08:10:26;;;;;;;18.20;14.83;;;14.70;99.90;;;;;;5031600;28;20206;-64
2021/08/28 08:12:53;;;;;;;21.27;15.80;;;14.70;99.90;;;;;;5031801;28;20276;-65
2021/08/28 08:15:21;;;;;;;19.57;14.33;;;14.70;99.90;;;;;;5031531;28;20671;-65
2021/08/28 08:17:49;;;;;;;23.63;16.20;;;14.70;99.90;;;;;;5031807;28;20211;-65
2021/08/28 08:20:16;;;;;;;17.43;13.57;;;14.80;99.90;;;;;;5031778;28;20634;-64
2021/08/28 08:22:43;;;;;;;19.80;14.87;;;14.90;99.90;;;;;;5031461;28;20230;-64
2021/08/28 08:25:10;;;;;;;19.87;14.07;;;14.90;99.90;;;;;;5031157;28;20707;-64
2021/08/28 08:27:37;;;;;;;22.50;14.47;;;15.00;99.90;;;;;;5031721;28;20276;-64
2021/08/28 08:30:05;;;;;;;17.80;13.73;;;15.00;99.90;;;;;;5031675;28;20240;-64
2021/08/28 08:32:32;;;;;;;18.53;14.03;;;15.00;99.90;;;;;;5032417;28;20645;-65
2021/08/28 08:35:01;;;;;;;18.70;14.30;;;15.00;99.90;;;;;;5032480;28;20280;-64
2021/08/28 08:37:27;;;;;;;17.70;13.73;;;15.00;99.90;;;;;;5031649;28;20210;-64
2021/08/28 08:39:54;;;;;;;17.33;13.47;;;15.10;99.90;;;;;;5034266;28;20275;-65
2021/08/28 08:42:24;;;;;;;19.30;14.03;;;15.20;99.90;;;;;;5036154;28;20226;-65
2021/08/28 08:44:51;;;;;;;18.43;14.13;;;15.20;99.90;;;;;;5035800;28;20214;-64
2021/08/28 08:47:18;;;;;;;19.67;14.53;;;15.20;99.90;;;;;;5035623;28;20256;-65
2021/08/28 08:49:45;;;;;;;15.67;13.50;;;15.20;99.90;;;;;;5035136;28;20255;-65
2021/08/28 08:52:15;;;;;;;21.37;13.43;;;15.10;99.90;;;;;;5035280;28;20226;-65
2021/08/28 08:54:42;;;;;;;16.50;12.87;;;15.20;99.90;;;;;;5034742;28;20260;-65
2021/08/28 08:57:08;;;;;;;18.43;12.80;;;15.20;99.90;;;;;;5035111;28;20249;-65
2021/08/28 08:59:35;;;;;;;16.10;12.13;;;15.20;97.60;;;;;;5035065;28;20283;-65
2021/08/28 09:02:02;;;;;;;17.27;11.47;;;15.30;99.90;;;;;;5034905;28;20639;-64
2021/08/28 09:04:29;;;;;;;14.17;11.73;;;15.40;99.90;;;;;;5034650;28;20210;-65
2021/08/28 09:06:56;;;;;;;13.43;10.47;;;15.40;12.80;;;;;;5034729;28;20622;-64
2021/08/28 09:09:24;;;;;;;15.17;11.03;;;15.40;36.20;;;;;;5034953;28;20206;-65
2021/08/28 09:11:59;;;;;;;17.53;12.23;;;15.40;67.60;;;;;;5034527;28;20642;-65
2021/08/28 09:14:26;;;;;;;14.57;10.17;;;15.60;99.90;;;;;;5034524;28;20241;-64
2021/08/28 09:16:54;;;;;;;14.47;10.10;;;15.80;99.90;;;;;;5034437;28;20260;-65
2021/08/28 09:19:24;;;;;;;14.10;9.53;;;15.80;1.00;;;;;;5034764;28;20222;-64
2021/08/28 09:21:51;;;;;;;13.87;9.43;;;15.80;99.90;;;;;;5034740;28;20332;-64
2021/08/28 09:24:17;;;;;;;9.87;8.37;;;15.80;99.90;;;;;;5034389;28;20210;-65
2021/08/28 09:26:46;;;;;;;11.93;9.23;;;15.80;99.90;;;;;;5034456;28;20225;-64
2021/08/28 09:29:15;;;;;;;10.63;9.17;;;15.80;99.90;;;;;;5034472;28;20288;-65
2021/08/28 09:31:44;;;;;;;10.27;8.27;;;15.80;99.90;;;;;;5034243;28;20280;-65
2021/08/28 09:34:22;;;;;;;10.67;8.97;;;15.80;91.20;;;;;;5034167;28;20273;-64
2021/08/28 09:36:53;;;;;;;11.97;8.67;;;15.80;99.90;;;;;;5034732;28;20191;-65
2021/08/28 09:39:20;;;;;;;11.77;8.83;;;15.70;99.90;;;;;;5034480;28;20261;-65
2021/08/28 09:41:54;;;;;;;15.53;10.00;;;15.60;1.00;;;;;;5034155;28;20226;-65
2021/08/28 09:44:22;;;;;;;13.00;9.37;;;15.60;99.90;;;;;;5034083;28;20241;-64
2021/08/28 09:46:49;;;;;;;13.63;9.37;;;15.60;59.90;;;;;;5034441;28;20203;-64
2021/08/28 09:49:23;;;;;;;13.83;9.43;;;15.60;59.90;;;;;;5034096;28;20264;-65
2021/08/28 09:51:49;;;;;;;11.00;8.73;;;15.60;1.00;;;;;;5034015;28;20284;-64
2021/08/28 09:54:16;;;;;;;11.93;8.57;;;15.50;59.60;;;;;;5033381;28;20218;-65
2021/08/28 09:56:42;;;;;;;13.03;9.10;;;15.50;30.90;;;;;;5033890;28;20218;-65
2021/08/28 09:59:21;;;;;;;11.20;9.60;;;15.50;99.90;;;;;;5033928;28;20284;-64
2021/08/28 10:01:48;;;;;;;14.57;9.13;;;15.60;99.90;;;;;;5034010;28;20284;-65
2021/08/28 10:04:16;;;;;;;12.30;8.67;;;15.60;12.30;;;;;;5033661;28;20648;-64
2021/08/28 10:06:46;;;;;;;11.33;8.93;;;15.70;97.50;;;;;;5034137;28;20260;-65
2021/08/28 10:09:15;;;;;;;10.83;8.60;;;15.80;1.00;;;;;;5033813;28;20193;-65
2021/08/28 10:11:45;;;;;;;12.63;8.63;;;15.80;99.90;;;;;;5033825;28;20621;-64
2021/08/28 10:14:15;;;;;;;12.77;9.87;;;15.80;29.40;;;;;;5033343;28;20264;-64
2021/08/28 10:16:44;;;;;;;16.23;8.73;;;15.80;1.00;;;;;;5033813;28;20249;-64
2021/08/28 10:19:13;;;;;;;13.30;9.20;;;15.90;99.90;;;;;;5033418;28;20256;-65
2021/08/28 10:21:40;;;;;;;11.33;7.37;;;16.00;99.90;;;;;;5033353;28;20207;-65
2021/08/28 10:24:07;;;;;;;10.13;7.97;;;16.20;99.90;;;;;;5033338;28;20210;-65
2021/08/28 10:26:34;;;;;;;9.57;7.60;;;16.30;1.00;;;;;;5033341;28;20244;-64
2021/08/28 10:29:05;;;;;;;9.77;7.27;;;16.50;1.00;;;;;;5033870;28;20622;-65
2021/08/28 10:31:32;;;;;;;9.30;7.30;;;16.60;99.90;;;;;;5033362;28;20264;-65
2021/08/28 10:34:01;;;;;;;8.93;7.80;;;16.50;99.90;;;;;;5033226;28;20206;-66
2021/08/28 10:36:27;;;;;;;8.77;6.97;;;16.60;99.90;;;;;;5033307;28;20268;-64
2021/08/28 10:38:55;;;;;;;9.00;6.90;;;16.60;85.40;;;;;;5033309;28;20276;-63
2021/08/28 10:41:22;;;;;;;7.97;6.83;;;16.70;1.00;;;;;;5033191;28;20211;-63
2021/08/28 10:43:49;;;;;;;9.00;7.33;;;16.70;99.90;;;;;;5032833;28;20233;-63
2021/08/28 10:46:21;;;;;;;12.30;7.17;;;16.70;99.90;;;;;;5032518;28;20223;-63
2021/08/28 10:48:55;;;;;;;10.23;7.10;;;16.50;37.10;;;;;;5032819;28;20716;-64
2021/08/28 10:51:24;;;;;;;8.83;6.57;;;16.40;99.90;;;;;;5032662;28;20233;-64
2021/08/28 10:53:53;;;;;;;8.50;7.70;;;16.40;99.90;;;;;;5032395;28;20238;-63
2021/08/28 10:56:20;;;;;;;11.63;7.87;;;16.40;99.90;;;;;;5032808;28;20572;-63
2021/08/28 10:58:47;;;;;;;11.00;7.43;;;16.40;1.00;;;;;;5032646;28;20261;-63
2021/08/28 11:01:18;;;;;;;10.37;6.47;;;16.50;1.00;;;;;;5032217;28;20619;-63
2021/08/28 11:03:45;;;;;;;9.90;6.83;;;16.60;99.90;;;;;;5032409;28;20238;-63
2021/08/28 11:06:26;;;;;;;8.77;6.67;;;16.70;17.90;;;;;;5032690;28;20210;-63
2021/08/28 11:08:54;;;;;;;8.10;5.97;;;16.90;99.90;;;;;;5032574;28;20280;-63
2021/08/28 11:11:24;;;;;;;9.20;6.17;;;17.10;99.90;;;;;;5027196;28;20226;-63
2021/08/28 11:13:56;;;;;;;8.60;6.10;;;17.20;1.00;;;;;;5031743;28;20262;-63
2021/08/28 11:16:51;;;;;;;7.50;6.20;;;17.30;99.90;;;;;;5032174;28;20288;-64
2021/08/28 11:19:37;;;;;;;7.97;5.83;;;17.20;99.90;;;;;;5031866;28;20539;-63
2021/08/28 11:22:07;;;;;;;7.10;5.30;;;17.20;99.90;;;;;;5031745;28;20225;-63
2021/08/28 11:24:34;;;;;;;7.53;5.50;;;17.30;1.00;;;;;;5031604;28;20667;-63
2021/08/28 11:27:04;;;;;;;6.80;5.07;;;17.40;1.00;;;;;;5032302;28;20301;-65
2021/08/28 11:29:34;;;;;;;6.60;5.07;;;17.60;1.00;;;;;;5032130;28;20216;-70
2021/08/28 11:32:11;;;;;;;9.10;6.23;;;17.50;99.90;;;;;;5031562;28;20617;-63
2021/08/28 11:34:42;;;;;;;7.73;5.97;;;17.60;99.90;;;;;;5031710;28;20276;-66
2021/08/28 11:37:40;;;;;;;6.83;5.97;;;17.80;73.10;;;;;;5031913;28;20252;-66
2021/08/28 11:40:24;;;;;;;7.03;5.63;;;17.70;99.90;;;;;;5031308;28;20232;-67
2021/08/28 11:42:51;;;;;;;7.07;5.43;;;17.80;1.00;;;;;;5031268;28;20300;-63
2021/08/28 11:45:18;;;;;;;6.80;5.77;;;17.70;99.90;;;;;;5031766;28;20202;-65
2021/08/28 11:47:45;;;;;;;6.10;4.83;;;17.80;1.00;;;;;;5031493;28;20568;-64
2021/08/28 11:50:12;;;;;;;4.43;4.03;;;17.70;1.00;;;;;;5031438;28;20255;-65
2021/08/28 11:52:41;;;;;;;5.23;4.70;;;17.90;34.30;;;;;;5031244;28;20238;-65
2021/08/28 11:55:09;;;;;;;4.10;3.70;;;18.00;99.90;;;;;;5031641;28;20202;-68
2021/08/28 11:57:36;;;;;;;5.60;4.83;;;18.00;1.00;;;;;;5031239;28;20209;-69
2021/08/28 12:00:05;;;;;;;5.83;5.07;;;18.10;1.00;;;;;;5031464;28;20226;-68
2021/08/28 12:02:32;;;;;;;5.60;4.60;;;18.10;1.00;;;;;;5031027;28;20679;-67
2021/08/28 12:05:08;;;;;;;6.50;4.60;;;18.20;1.00;;;;;;5031468;28;20643;-67
2021/08/28 12:07:35;;;;;;;4.83;4.33;;;18.30;1.00;;;;;;5031482;28;20320;-64
2021/08/28 12:10:05;;;;;;;6.60;4.80;;;18.50;1.00;;;;;;5031124;28;20206;-68
2021/08/28 12:12:32;;;;;;;8.53;4.60;;;18.60;99.90;;;;;;5032456;28;20240;-65
2021/08/28 12:15:03;;;;;;;5.50;4.53;;;18.70;99.90;;;;;;5034029;28;20890;-65
2021/08/28 12:17:30;;;;;;;5.30;4.80;;;18.50;99.90;;;;;;5035577;28;20279;-62
2021/08/28 12:19:59;;;;;;;5.73;5.00;;;18.40;99.90;;;;;;5035460;28;20226;-62
2021/08/28 12:22:26;;;;;;;5.20;4.70;;;18.60;99.90;;;;;;5035000;28;20279;-63
2021/08/28 12:24:52;;;;;;;5.57;4.73;;;18.70;99.90;;;;;;5035193;28;20212;-62
2021/08/28 12:27:21;;;;;;;5.13;4.07;;;18.80;99.90;;;;;;5035603;28;20209;-63
2021/08/28 12:29:51;;;;;;;4.30;3.50;;;18.90;99.90;;;;;;5035554;28;20198;-63
2021/08/28 12:32:20;;;;;;;5.13;4.30;;;18.80;1.00;;;;;;5035072;28;20261;-63
2021/08/28 12:34:48;;;;;;;7.50;4.80;;;18.70;99.90;;;;;;5035273;28;20237;-63
2021/08/28 12:37:17;;;;;;;4.90;3.90;;;18.60;99.90;;;;;;5034969;28;20842;-63